createdAt,value
2018-07-13T00:01:17.502Z,99.90
2018-07-13T00:03:46.805Z,99.90
2018-07-13T00:06:19.530Z,99.90
2018-07-13T00:08:57.573Z,99.90
2018-07-13T00:11:37.224Z,99.90
2018-07-13T00:14:14.395Z,99.90
2018-07-13T00:16:55.960Z,99.90
2018-07-13T00:19:28.360Z,99.90
2018-07-13T00:22:05.908Z,99.90
2018-07-13T00:24:41.199Z,99.90
2018-07-13T00:27:13.926Z,99.90
2018-07-13T00:29:42.674Z,99.90
2018-07-13T00:32:14.195Z,99.90
2018-07-13T00:34:42.639Z,99.90
2018-07-13T00:37:12.023Z,99.90
2018-07-13T00:39:45.365Z,99.90
2018-07-13T00:42:16.384Z,99.90
2018-07-13T00:44:46.364Z,99.90
2018-07-13T00:47:14.902Z,99.90
2018-07-13T00:49:44.548Z,99.90
2018-07-13T00:52:12.864Z,99.90
2018-07-13T00:54:45.473Z,99.90
2018-07-13T00:57:14.952Z,99.90
2018-07-13T00:59:47.377Z,99.90
2018-07-13T01:02:25.818Z,99.90
2018-07-13T01:04:57.215Z,99.90
2018-07-13T01:07:41.410Z,99.90
2018-07-13T01:10:22.814Z,99.90
2018-07-13T01:15:00.133Z,99.90
2018-07-13T01:17:36.019Z,99.90
2018-07-13T01:20:14.722Z,99.90
2018-07-13T01:22:50.526Z,99.90
2018-07-13T01:25:26.095Z,99.90
2018-07-13T01:30:45.372Z,99.90
2018-07-13T01:33:18.070Z,99.90
2018-07-13T01:35:49.125Z,99.90
2018-07-13T01:38:23.267Z,99.90
2018-07-13T01:40:56.530Z,99.90
2018-07-13T01:43:30.995Z,99.90
2018-07-13T01:46:01.521Z,99.90
2018-07-13T01:51:06.353Z,99.90
2018-07-13T01:53:43.175Z,99.90
2018-07-13T01:56:14.442Z,99.90
2018-07-13T01:58:45.338Z,99.90
2018-07-13T02:03:42.819Z,99.90
2018-07-13T02:06:14.219Z,99.90
2018-07-13T02:08:44.659Z,99.90
2018-07-13T02:11:18.624Z,99.90
2018-07-13T02:13:47.002Z,99.90
2018-07-13T02:18:48.234Z,99.90
2018-07-13T02:21:17.038Z,99.90
2018-07-13T02:23:47.235Z,99.90
2018-07-13T02:26:18.152Z,99.90
2018-07-13T02:28:58.901Z,99.90
2018-07-13T02:31:36.369Z,99.90
2018-07-13T02:34:05.511Z,99.90
2018-07-13T02:36:42.711Z,99.90
2018-07-13T02:39:15.161Z,99.90
2018-07-13T02:41:52.794Z,99.90
2018-07-13T02:44:28.071Z,99.90
2018-07-13T02:47:06.267Z,99.90
2018-07-13T02:49:34.847Z,99.90
2018-07-13T02:52:07.823Z,99.90
2018-07-13T02:54:42.525Z,99.90
2018-07-13T02:57:12.609Z,99.90
2018-07-13T02:59:41.047Z,99.90
2018-07-13T03:02:14.128Z,99.90
2018-07-13T03:04:47.062Z,99.90
2018-07-13T03:07:18.565Z,99.90
2018-07-13T03:09:48.081Z,99.90
2018-07-13T03:12:16.412Z,99.90
2018-07-13T03:14:46.424Z,99.90
2018-07-13T03:17:22.579Z,99.90
2018-07-13T03:20:01.726Z,99.90
2018-07-13T03:22:35.654Z,99.90
2018-07-13T03:25:14.194Z,99.90
2018-07-13T03:27:45.101Z,99.90
2018-07-13T03:30:17.846Z,99.90
2018-07-13T03:32:49.160Z,99.90
2018-07-13T03:35:19.806Z,99.90
2018-07-13T03:37:49.398Z,99.90
2018-07-13T03:40:18.670Z,99.90
2018-07-13T03:42:51.008Z,99.90
2018-07-13T03:45:35.514Z,99.90
2018-07-13T03:50:40.295Z,99.90
2018-07-13T03:53:09.631Z,99.90
2018-07-13T03:55:39.713Z,99.90
2018-07-13T03:58:10.163Z,99.90
2018-07-13T04:00:38.734Z,99.90
2018-07-13T04:03:08.818Z,99.90
2018-07-13T04:05:38.915Z,99.90
2018-07-13T04:08:07.561Z,99.90
2018-07-13T04:10:42.866Z,99.90
2018-07-13T04:13:13.151Z,99.90
2018-07-13T04:15:44.105Z,99.90
2018-07-13T04:18:17.262Z,99.90
2018-07-13T04:20:46.482Z,99.90
2018-07-13T04:23:15.161Z,99.90
2018-07-13T04:25:45.623Z,99.90
2018-07-13T04:28:14.050Z,99.90
2018-07-13T04:30:43.520Z,99.90
2018-07-13T04:33:11.843Z,99.90
2018-07-13T04:35:40.113Z,99.90
2018-07-13T04:38:08.966Z,99.90
2018-07-13T04:40:37.274Z,99.90
2018-07-13T04:43:05.576Z,99.90
2018-07-13T04:45:33.852Z,99.90
2018-07-13T04:48:02.214Z,99.90
2018-07-13T04:50:30.769Z,99.90
2018-07-13T04:52:59.310Z,99.90
2018-07-13T04:57:55.834Z,99.90
2018-07-13T05:00:24.305Z,99.90
2018-07-13T05:02:52.768Z,99.90
2018-07-13T05:05:21.718Z,99.90
2018-07-13T05:07:50.143Z,99.90
2018-07-13T05:10:18.993Z,99.90
2018-07-13T05:12:47.275Z,99.90
2018-07-13T05:15:15.617Z,99.90
2018-07-13T05:17:43.874Z,99.90
2018-07-13T05:20:12.136Z,99.90
2018-07-13T05:22:40.417Z,99.90
2018-07-13T05:25:09.479Z,99.90
2018-07-13T05:27:37.751Z,99.90
2018-07-13T05:30:06.848Z,99.90
2018-07-13T05:32:36.019Z,99.90
2018-07-13T05:35:04.319Z,99.90
2018-07-13T05:37:32.867Z,99.90
2018-07-13T05:40:03.483Z,99.90
2018-07-13T05:42:32.123Z,99.90
2018-07-13T05:45:00.378Z,99.90
2018-07-13T05:47:28.648Z,99.90
2018-07-13T05:49:56.931Z,99.90
2018-07-13T05:52:25.255Z,99.90
2018-07-13T05:54:53.789Z,99.90
2018-07-13T05:57:22.071Z,99.90
2018-07-13T05:59:50.341Z,99.90
2018-07-13T06:02:18.632Z,99.90
2018-07-13T06:04:47.851Z,99.90
2018-07-13T06:07:16.676Z,99.90
2018-07-13T06:09:45.811Z,99.90
2018-07-13T06:12:14.782Z,99.90
2018-07-13T06:14:43.948Z,99.90
2018-07-13T06:17:12.781Z,99.90
2018-07-13T06:19:41.638Z,99.90
2018-07-13T06:22:10.482Z,99.90
2018-07-13T06:24:39.342Z,99.90
2018-07-13T06:27:08.243Z,99.90
2018-07-13T06:29:37.133Z,99.90
2018-07-13T06:32:06.353Z,99.90
2018-07-13T06:34:35.223Z,99.90
2018-07-13T06:37:04.149Z,99.90
2018-07-13T06:39:33.016Z,99.90
2018-07-13T06:42:02.302Z,99.90
2018-07-13T06:44:31.428Z,99.90
2018-07-13T06:47:00.284Z,99.90
2018-07-13T06:49:29.147Z,99.90
2018-07-13T06:51:58.028Z,99.90
2018-07-13T06:54:27.849Z,99.90
2018-07-13T06:57:00.120Z,99.90
2018-07-13T06:59:29.519Z,99.90
2018-07-13T07:02:01.373Z,99.90
2018-07-13T07:04:37.553Z,99.90
2018-07-13T07:07:10.913Z,99.90
2018-07-13T07:09:44.904Z,99.90
2018-07-13T07:12:51.928Z,99.90
2018-07-13T07:15:21.880Z,99.90
2018-07-13T07:17:50.957Z,99.90
2018-07-13T07:20:20.324Z,99.90
2018-07-13T07:22:49.592Z,99.90
2018-07-13T07:25:18.818Z,99.90
2018-07-13T07:27:47.711Z,99.90
2018-07-13T07:30:17.235Z,99.90
2018-07-13T07:32:46.465Z,99.90
2018-07-13T07:35:15.699Z,99.90
2018-07-13T07:37:45.166Z,99.90
2018-07-13T07:40:14.397Z,99.90
2018-07-13T07:45:12.098Z,99.90
2018-07-13T07:47:40.972Z,99.90
2018-07-13T07:50:09.829Z,99.90
2018-07-13T07:52:47.960Z,99.90
2018-07-13T07:55:16.810Z,99.90
2018-07-13T07:57:45.800Z,99.90
2018-07-13T08:00:15.456Z,99.90
2018-07-13T08:02:44.294Z,99.90
2018-07-13T08:05:22.537Z,99.90
2018-07-13T08:07:55.125Z,99.90
2018-07-13T08:10:23.997Z,99.90
2018-07-13T08:12:52.931Z,99.90
2018-07-13T08:15:21.838Z,99.90
2018-07-13T08:17:59.740Z,99.90
2018-07-13T08:23:01.086Z,99.90
2018-07-13T08:25:30.580Z,99.90
2018-07-13T08:28:01.423Z,99.90
2018-07-13T08:30:33.035Z,99.90
2018-07-13T08:33:05.123Z,99.90
2018-07-13T08:35:34.007Z,99.90
2018-07-13T08:38:03.129Z,99.90
2018-07-13T08:42:59.666Z,99.90
2018-07-13T08:45:28.832Z,99.90
2018-07-13T08:47:57.784Z,99.90
2018-07-13T08:50:26.713Z,99.90
2018-07-13T08:52:56.515Z,99.90
2018-07-13T08:55:25.622Z,99.90
2018-07-13T08:57:54.727Z,99.90
2018-07-13T09:00:23.069Z,99.90
2018-07-13T09:02:55.724Z,99.90
2018-07-13T09:05:24.692Z,99.90
2018-07-13T09:07:53.638Z,99.90
2018-07-13T09:10:22.862Z,99.90
2018-07-13T09:12:52.056Z,99.90
2018-07-13T09:17:57.093Z,99.90
2018-07-13T09:20:27.440Z,99.90
2018-07-13T09:23:06.846Z,99.90
2018-07-13T09:30:38.594Z,99.90
2018-07-13T09:33:08.024Z,99.90
2018-07-13T09:35:37.596Z,99.90
2018-07-13T09:38:07.098Z,99.90
2018-07-13T09:40:36.655Z,99.90
2018-07-13T09:43:11.497Z,99.90
2018-07-13T09:48:10.053Z,99.90
2018-07-13T09:50:39.776Z,99.90
2018-07-13T09:53:09.191Z,99.90
2018-07-13T09:55:38.519Z,99.90
2018-07-13T09:58:08.530Z,99.90
2018-07-13T10:00:43.420Z,99.90
2018-07-13T10:03:12.477Z,99.90
2018-07-13T10:05:41.375Z,99.90
2018-07-13T10:08:10.466Z,99.90
2018-07-13T10:10:39.415Z,99.90
2018-07-13T10:13:11.385Z,99.90
2018-07-13T10:15:40.381Z,99.90
2018-07-13T10:18:09.349Z,99.90
2018-07-13T10:20:38.705Z,99.90
2018-07-13T10:23:07.765Z,99.90
2018-07-13T10:25:36.909Z,99.90
2018-07-13T10:28:05.938Z,99.90
2018-07-13T10:30:36.410Z,99.10
2018-07-13T10:33:05.963Z,98.10
2018-07-13T10:35:37.827Z,97.60
2018-07-13T10:38:07.007Z,98.10
2018-07-13T10:40:36.705Z,99.90
2018-07-13T10:43:05.863Z,98.20
2018-07-13T10:45:35.246Z,98.40
2018-07-13T10:48:05.061Z,99.90
2018-07-13T10:50:34.281Z,99.90
2018-07-13T10:53:03.219Z,99.90
2018-07-13T10:55:32.211Z,99.90
2018-07-13T10:58:01.096Z,98.60
2018-07-13T11:00:30.076Z,99.90
2018-07-13T11:02:59.106Z,99.10
2018-07-13T11:05:28.800Z,99.90
2018-07-13T11:07:58.091Z,99.90
2018-07-13T11:10:27.149Z,99.90
2018-07-13T11:12:56.016Z,98.50
2018-07-13T11:15:24.913Z,97.40
2018-07-13T11:17:54.088Z,97.10
2018-07-13T11:20:22.963Z,97.90
2018-07-13T11:22:51.871Z,97.30
2018-07-13T11:25:20.728Z,95.90
2018-07-13T11:27:49.673Z,97.40
2018-07-13T11:30:19.023Z,96.70
2018-07-13T11:32:47.903Z,95.30
2018-07-13T11:35:16.831Z,98.10
2018-07-13T11:37:45.704Z,96.10
2018-07-13T11:40:14.963Z,97.30
2018-07-13T11:42:43.836Z,95.70
2018-07-13T11:45:12.759Z,96.30
2018-07-13T11:47:41.777Z,96.80
2018-07-13T11:50:11.045Z,95.80
2018-07-13T11:52:39.921Z,96.40
2018-07-13T11:55:08.777Z,95.00
2018-07-13T11:57:37.685Z,94.70
2018-07-13T12:00:06.966Z,96.90
2018-07-13T12:02:35.537Z,95.20
2018-07-13T12:05:04.426Z,95.60
2018-07-13T12:07:33.355Z,95.10
2018-07-13T12:10:02.514Z,94.60
2018-07-13T12:12:31.422Z,95.50
2018-07-13T12:15:01.363Z,92.50
2018-07-13T12:17:30.372Z,93.10
2018-07-13T12:19:59.629Z,91.60
2018-07-13T12:22:28.665Z,91.50
2018-07-13T12:24:58.015Z,91.40
2018-07-13T12:27:27.394Z,92.10
2018-07-13T12:29:56.440Z,90.70
2018-07-13T12:32:25.327Z,90.50
2018-07-13T12:34:54.764Z,91.60
2018-07-13T12:37:23.603Z,92.50
2018-07-13T12:39:52.667Z,90.60
2018-07-13T12:42:21.412Z,88.90
2018-07-13T12:44:50.914Z,89.00
2018-07-13T12:47:20.011Z,88.70
2018-07-13T12:49:49.186Z,91.50
2018-07-13T12:52:18.283Z,89.40
2018-07-13T12:54:47.396Z,91.10
2018-07-13T12:57:16.660Z,91.20
2018-07-13T12:59:45.832Z,90.40
2018-07-13T13:02:14.988Z,92.30
2018-07-13T13:04:44.078Z,92.00
2018-07-13T13:07:13.245Z,90.60
2018-07-13T13:09:42.296Z,92.90
2018-07-13T13:12:11.450Z,90.90
2018-07-13T13:14:40.510Z,92.80
2018-07-13T13:17:09.524Z,95.90
2018-07-13T13:19:38.959Z,94.40
2018-07-13T13:22:08.511Z,94.70
2018-07-13T13:24:37.495Z,95.10
2018-07-13T13:27:06.601Z,95.80
2018-07-13T13:29:35.701Z,95.40
2018-07-13T13:32:04.715Z,93.90
2018-07-13T13:34:34.085Z,95.00
2018-07-13T13:37:03.194Z,95.00
2018-07-13T13:39:32.173Z,96.10
2018-07-13T13:42:01.192Z,95.70
2018-07-13T13:44:30.590Z,96.40
2018-07-13T13:46:59.683Z,97.00
2018-07-13T13:49:29.480Z,97.70
2018-07-13T13:51:58.417Z,96.70
2018-07-13T13:54:27.795Z,95.50
2018-07-13T13:56:56.854Z,97.20
2018-07-13T13:59:25.945Z,97.10
2018-07-13T14:01:54.689Z,96.70
2018-07-13T14:04:23.707Z,97.30
2018-07-13T14:06:52.883Z,95.70
2018-07-13T14:09:22.087Z,98.40
2018-07-13T14:11:54.533Z,96.40
2018-07-13T14:14:23.886Z,95.40
2018-07-13T14:19:22.169Z,95.80
2018-07-13T14:21:54.156Z,96.90
2018-07-13T14:24:23.889Z,94.10
2018-07-13T14:26:53.152Z,94.40
2018-07-13T14:29:22.042Z,94.20
2018-07-13T14:31:50.932Z,94.60
2018-07-13T14:36:48.883Z,95.30
2018-07-13T14:39:17.736Z,95.70
2018-07-13T14:41:46.966Z,96.00
2018-07-13T14:44:16.028Z,98.00
2018-07-13T14:46:44.978Z,97.00
2018-07-13T14:49:14.004Z,97.50
2018-07-13T14:51:42.839Z,97.40
2018-07-13T14:54:11.696Z,95.40
2018-07-13T14:56:42.396Z,94.80
2018-07-13T14:59:10.946Z,96.00
2018-07-13T15:01:39.836Z,92.80
2018-07-13T15:04:08.461Z,92.40
2018-07-13T15:06:37.246Z,89.60
2018-07-13T15:09:06.621Z,90.00
2018-07-13T15:11:35.246Z,90.40
2018-07-13T15:14:03.860Z,84.50
2018-07-13T15:16:32.479Z,85.00
2018-07-13T15:19:01.044Z,86.20
2018-07-13T15:21:29.667Z,89.00
2018-07-13T15:23:58.192Z,85.90
2018-07-13T15:26:26.776Z,90.00
2018-07-13T15:28:55.360Z,87.20
2018-07-13T15:31:24.137Z,87.90
2018-07-13T15:33:52.759Z,90.40
2018-07-13T15:36:21.425Z,86.40
2018-07-13T15:38:50.365Z,85.90
2018-07-13T15:41:18.970Z,87.80
2018-07-13T15:43:47.598Z,83.60
2018-07-13T15:46:16.228Z,87.20
2018-07-13T15:51:26.179Z,84.60
2018-07-13T15:53:54.837Z,79.50
2018-07-13T15:56:23.455Z,87.60
2018-07-13T15:58:52.402Z,87.40
2018-07-13T16:01:30.721Z,83.30
2018-07-13T16:04:02.702Z,86.40
2018-07-13T16:06:31.255Z,86.30
2018-07-13T16:08:59.844Z,78.20
2018-07-13T16:11:28.704Z,76.60
2018-07-13T16:14:06.868Z,74.80
2018-07-13T16:16:35.705Z,74.00
2018-07-13T16:19:04.271Z,70.20
2018-07-13T16:21:33.258Z,74.30
2018-07-13T16:24:04.912Z,70.90
2018-07-13T16:26:33.793Z,74.00
2018-07-13T16:29:02.406Z,73.90
2018-07-13T16:31:30.964Z,76.10
2018-07-13T16:33:59.553Z,78.20
2018-07-13T16:36:28.346Z,81.30
2018-07-13T16:41:31.627Z,81.70
2018-07-13T16:44:09.570Z,84.60
2018-07-13T16:49:12.761Z,86.80
2018-07-13T16:51:41.308Z,86.00
2018-07-13T16:54:10.111Z,85.10
2018-07-13T16:56:38.767Z,89.00
2018-07-13T16:59:07.566Z,88.10
2018-07-13T17:01:36.524Z,88.30
2018-07-13T17:04:05.409Z,90.00
2018-07-13T17:09:02.702Z,90.60
2018-07-13T17:11:32.025Z,91.40
2018-07-13T17:14:00.605Z,92.90
2018-07-13T17:16:29.845Z,92.20
2018-07-13T17:18:58.723Z,95.10
2018-07-13T17:21:27.611Z,94.50
2018-07-13T17:23:56.629Z,96.20
2018-07-13T17:26:25.545Z,97.00
2018-07-13T17:28:54.610Z,96.30
2018-07-13T17:31:23.509Z,97.90
2018-07-13T17:33:52.377Z,97.90
2018-07-13T17:36:21.315Z,98.30
2018-07-13T17:38:50.201Z,98.60
2018-07-13T17:41:19.185Z,98.10
2018-07-13T17:43:48.677Z,98.40
2018-07-13T17:46:21.971Z,98.50
2018-07-13T17:48:51.246Z,98.20
2018-07-13T17:51:35.257Z,98.40
2018-07-13T17:54:07.707Z,98.90
2018-07-13T17:56:39.056Z,99.70
2018-07-13T17:59:09.821Z,99.90
2018-07-13T18:01:39.750Z,99.90
2018-07-13T18:04:09.618Z,99.90
2018-07-13T18:06:38.993Z,99.90
2018-07-13T18:09:08.848Z,99.70
2018-07-13T18:11:38.690Z,99.20
2018-07-13T18:14:07.868Z,99.70
2018-07-13T18:16:37.191Z,99.90
2018-07-13T18:19:06.165Z,99.90
2018-07-13T18:21:35.181Z,99.90
2018-07-13T18:24:04.651Z,99.90
2018-07-13T18:26:34.170Z,99.90
2018-07-13T18:29:03.536Z,99.90
2018-07-13T18:31:32.512Z,99.90
2018-07-13T18:34:01.935Z,99.90
2018-07-13T18:36:31.186Z,99.90
2018-07-13T18:39:00.787Z,99.90
2018-07-13T18:41:30.266Z,99.90
2018-07-13T18:43:59.327Z,99.90
2018-07-13T18:46:28.339Z,99.90
2018-07-13T18:48:57.339Z,99.90
2018-07-13T18:51:26.971Z,99.90
2018-07-13T18:53:55.918Z,99.90
2018-07-13T18:56:25.108Z,99.90
2018-07-13T18:58:54.006Z,99.90
2018-07-13T19:03:51.701Z,99.90
2018-07-13T19:06:21.192Z,99.90
2018-07-13T19:08:50.396Z,99.90
2018-07-13T19:11:19.365Z,99.90
2018-07-13T19:13:48.320Z,99.90
2018-07-13T19:16:17.504Z,99.90
2018-07-13T19:18:46.346Z,99.90
2018-07-13T19:21:15.498Z,99.90
2018-07-13T19:23:45.185Z,99.90
2018-07-13T19:26:14.058Z,99.90
2018-07-13T19:28:42.978Z,99.90
2018-07-13T19:31:11.837Z,99.90
2018-07-13T19:33:40.881Z,99.90
2018-07-13T19:36:09.989Z,99.90
2018-07-13T19:38:39.078Z,99.90
2018-07-13T19:41:08.045Z,99.90
2018-07-13T19:43:36.910Z,99.90
2018-07-13T19:46:06.235Z,99.90
2018-07-13T19:48:35.172Z,99.90
2018-07-13T19:53:32.731Z,99.90
2018-07-13T19:56:01.639Z,99.90
2018-07-13T20:00:58.942Z,99.90
2018-07-13T20:03:27.816Z,99.90
2018-07-13T20:05:56.670Z,99.90
2018-07-13T20:08:25.642Z,99.90
2018-07-13T20:10:54.495Z,99.90
2018-07-13T20:13:23.678Z,99.90
2018-07-13T20:15:52.742Z,99.90
2018-07-13T20:18:21.602Z,99.90
2018-07-13T20:20:51.011Z,99.90
2018-07-13T20:23:19.889Z,99.90
2018-07-13T20:25:48.762Z,99.90
2018-07-13T20:28:18.317Z,99.90
2018-07-13T20:30:47.616Z,99.90
2018-07-13T20:35:46.277Z,99.90
2018-07-13T20:38:15.153Z,99.90
2018-07-13T20:40:44.051Z,99.90
2018-07-13T20:43:12.945Z,99.90
2018-07-13T20:45:41.840Z,99.90
2018-07-13T20:48:10.769Z,99.90
2018-07-13T20:50:40.240Z,99.90
2018-07-13T20:53:09.457Z,99.90
2018-07-13T20:58:07.606Z,99.90
2018-07-13T21:00:35.932Z,99.90
2018-07-13T21:03:04.930Z,99.90
2018-07-13T21:05:36.482Z,99.90
2018-07-13T21:08:08.712Z,99.90
2018-07-13T21:10:37.055Z,99.90
2018-07-13T21:13:05.331Z,99.90
2018-07-13T21:15:34.305Z,99.90
2018-07-13T21:18:03.142Z,99.90
2018-07-13T21:20:31.471Z,99.90
2018-07-13T21:22:59.750Z,99.90
2018-07-13T21:25:28.883Z,99.90
2018-07-13T21:27:57.441Z,99.90
2018-07-13T21:30:26.470Z,99.90
2018-07-13T21:32:54.755Z,99.90
2018-07-13T21:35:23.241Z,99.90
2018-07-13T21:37:51.571Z,99.90
2018-07-13T21:40:19.835Z,99.90
2018-07-13T21:42:48.469Z,99.90
2018-07-13T21:45:16.862Z,99.90
2018-07-13T21:47:45.538Z,99.90
2018-07-13T21:50:13.876Z,99.90
2018-07-13T21:52:42.301Z,99.90
2018-07-13T21:55:10.948Z,99.90
2018-07-13T21:57:39.370Z,99.90
2018-07-13T22:00:08.043Z,99.90
2018-07-13T22:02:36.652Z,99.90
2018-07-13T22:05:05.498Z,99.90
2018-07-13T22:07:33.812Z,99.90
2018-07-13T22:10:02.190Z,99.90
2018-07-13T22:12:33.822Z,99.90
2018-07-13T22:17:33.416Z,99.90
2018-07-13T22:20:01.790Z,99.90
2018-07-13T22:22:30.276Z,99.90
2018-07-13T22:27:27.095Z,99.90
2018-07-13T22:29:55.406Z,99.90
2018-07-13T22:32:23.712Z,99.90
2018-07-13T22:34:52.060Z,99.90
2018-07-13T22:39:48.520Z,99.90
2018-07-13T22:42:16.831Z,99.90
2018-07-13T22:44:45.145Z,99.90
2018-07-13T22:47:13.498Z,99.90
2018-07-13T22:52:09.991Z,99.90
2018-07-13T22:54:38.320Z,99.90
2018-07-13T22:57:06.618Z,99.90
2018-07-13T22:59:34.903Z,99.90
2018-07-13T23:02:03.239Z,99.90
2018-07-13T23:04:31.537Z,99.90
2018-07-13T23:06:59.817Z,99.90
2018-07-13T23:09:28.082Z,99.90
2018-07-13T23:11:56.725Z,99.90
2018-07-13T23:14:25.040Z,99.90
2018-07-13T23:16:53.346Z,99.90
2018-07-13T23:19:21.651Z,99.90
2018-07-13T23:21:49.996Z,99.90
2018-07-13T23:24:18.265Z,99.90
2018-07-13T23:26:47.134Z,99.90
2018-07-13T23:29:15.437Z,99.90
2018-07-13T23:31:43.982Z,99.90
2018-07-13T23:34:12.634Z,99.90
2018-07-13T23:36:40.922Z,99.90
2018-07-13T23:39:09.448Z,99.90
2018-07-13T23:41:37.760Z,99.90
2018-07-13T23:44:06.095Z,99.90
2018-07-13T23:46:34.390Z,99.90
2018-07-13T23:49:02.695Z,99.90
2018-07-13T23:51:30.968Z,99.90
2018-07-13T23:53:59.321Z,99.90
2018-07-13T23:56:27.685Z,99.90
2018-07-13T23:58:56.182Z,99.90
